sensor_id;sensor_type;location;lat;lon;timestamp;P1;durP1;ratioP1;P2;durP2;ratioP2
42478;SDS011;28110;47.080;9.476;2022-07-22T00:01:14;13.13;;;10.37;;
42478;SDS011;28110;47.080;9.476;2022-07-22T00:03:39;14.87;;;10.87;;
42478;SDS011;28110;47.080;9.476;2022-07-22T00:06:05;11.95;;;10.63;;
42478;SDS011;28110;47.080;9.476;2022-07-22T00:08:31;13.57;;;10.20;;
42478;SDS011;28110;47.080;9.476;2022-07-22T00:10:56;13.88;;;10.80;;
42478;SDS011;28110;47.080;9.476;2022-07-22T00:13:22;12.23;;;10.83;;
42478;SDS011;28110;47.080;9.476;2022-07-22T00:15:48;12.77;;;11.48;;
42478;SDS011;28110;47.080;9.476;2022-07-22T00:18:14;14.33;;;10.63;;
42478;SDS011;28110;47.080;9.476;2022-07-22T00:20:40;13.07;;;10.65;;
42478;SDS011;28110;47.080;9.476;2022-07-22T00:23:05;11.37;;;9.87;;
42478;SDS011;28110;47.080;9.476;2022-07-22T00:25:31;14.90;;;11.95;;
42478;SDS011;28110;47.080;9.476;2022-07-22T00:27:56;14.83;;;10.77;;
42478;SDS011;28110;47.080;9.476;2022-07-22T00:30:22;12.73;;;10.67;;
42478;SDS011;28110;47.080;9.476;2022-07-22T00:32:48;14.98;;;10.88;;
42478;SDS011;28110;47.080;9.476;2022-07-22T00:35:13;14.50;;;11.00;;
42478;SDS011;28110;47.080;9.476;2022-07-22T00:37:39;12.40;;;10.37;;
42478;SDS011;28110;47.080;9.476;2022-07-22T00:40:04;12.68;;;10.60;;
42478;SDS011;28110;47.080;9.476;2022-07-22T00:42:31;13.10;;;10.17;;
42478;SDS011;28110;47.080;9.476;2022-07-22T00:44:57;14.38;;;10.50;;
42478;SDS011;28110;47.080;9.476;2022-07-22T00:47:22;11.50;;;10.23;;
42478;SDS011;28110;47.080;9.476;2022-07-22T00:49:48;13.67;;;11.63;;
42478;SDS011;28110;47.080;9.476;2022-07-22T00:52:14;15.63;;;11.43;;
42478;SDS011;28110;47.080;9.476;2022-07-22T00:54:39;14.63;;;11.40;;
42478;SDS011;28110;47.080;9.476;2022-07-22T00:57:05;13.38;;;11.90;;
42478;SDS011;28110;47.080;9.476;2022-07-22T00:59:31;12.97;;;11.47;;
42478;SDS011;28110;47.080;9.476;2022-07-22T01:01:56;12.97;;;10.67;;
42478;SDS011;28110;47.080;9.476;2022-07-22T01:04:22;12.60;;;10.95;;
42478;SDS011;28110;47.080;9.476;2022-07-22T01:06:47;13.33;;;10.97;;
42478;SDS011;28110;47.080;9.476;2022-07-22T01:09:13;12.90;;;11.32;;
42478;SDS011;28110;47.080;9.476;2022-07-22T01:11:39;12.77;;;11.20;;
42478;SDS011;28110;47.080;9.476;2022-07-22T01:14:05;14.25;;;10.85;;
42478;SDS011;28110;47.080;9.476;2022-07-22T01:16:31;15.00;;;11.20;;
42478;SDS011;28110;47.080;9.476;2022-07-22T01:18:57;14.88;;;11.88;;
42478;SDS011;28110;47.080;9.476;2022-07-22T01:21:22;13.03;;;11.30;;
42478;SDS011;28110;47.080;9.476;2022-07-22T01:23:48;14.43;;;11.98;;
42478;SDS011;28110;47.080;9.476;2022-07-22T01:26:14;15.05;;;11.43;;
42478;SDS011;28110;47.080;9.476;2022-07-22T01:28:40;15.03;;;12.07;;
42478;SDS011;28110;47.080;9.476;2022-07-22T01:31:06;19.65;;;12.38;;
42478;SDS011;28110;47.080;9.476;2022-07-22T01:33:32;15.77;;;12.45;;
42478;SDS011;28110;47.080;9.476;2022-07-22T01:35:58;14.05;;;11.48;;
42478;SDS011;28110;47.080;9.476;2022-07-22T01:38:24;16.07;;;12.63;;
42478;SDS011;28110;47.080;9.476;2022-07-22T01:40:50;17.58;;;12.52;;
42478;SDS011;28110;47.080;9.476;2022-07-22T01:43:16;14.83;;;13.10;;
42478;SDS011;28110;47.080;9.476;2022-07-22T01:45:43;17.40;;;12.85;;
42478;SDS011;28110;47.080;9.476;2022-07-22T01:48:09;17.88;;;12.73;;
42478;SDS011;28110;47.080;9.476;2022-07-22T01:50:35;17.23;;;11.97;;
42478;SDS011;28110;47.080;9.476;2022-07-22T01:53:01;16.17;;;12.63;;
42478;SDS011;28110;47.080;9.476;2022-07-22T01:55:27;17.27;;;12.98;;
42478;SDS011;28110;47.080;9.476;2022-07-22T01:57:52;16.10;;;11.53;;
42478;SDS011;28110;47.080;9.476;2022-07-22T02:00:18;17.27;;;13.10;;
42478;SDS011;28110;47.080;9.476;2022-07-22T02:02:44;19.27;;;13.00;;
42478;SDS011;28110;47.080;9.476;2022-07-22T02:05:10;16.17;;;13.13;;
42478;SDS011;28110;47.080;9.476;2022-07-22T02:07:36;20.30;;;12.97;;
42478;SDS011;28110;47.080;9.476;2022-07-22T02:10:02;17.50;;;12.95;;
42478;SDS011;28110;47.080;9.476;2022-07-22T02:12:28;16.00;;;12.65;;
42478;SDS011;28110;47.080;9.476;2022-07-22T02:14:53;15.50;;;12.23;;
42478;SDS011;28110;47.080;9.476;2022-07-22T02:17:19;16.30;;;12.63;;
42478;SDS011;28110;47.080;9.476;2022-07-22T02:19:46;17.95;;;12.98;;
42478;SDS011;28110;47.080;9.476;2022-07-22T02:22:11;15.03;;;13.03;;
42478;SDS011;28110;47.080;9.476;2022-07-22T02:24:37;18.23;;;13.20;;
42478;SDS011;28110;47.080;9.476;2022-07-22T02:27:03;19.60;;;13.27;;
42478;SDS011;28110;47.080;9.476;2022-07-22T02:29:29;15.88;;;12.30;;
42478;SDS011;28110;47.080;9.476;2022-07-22T02:31:55;14.80;;;11.80;;
42478;SDS011;28110;47.080;9.476;2022-07-22T02:34:20;16.83;;;12.73;;
42478;SDS011;28110;47.080;9.476;2022-07-22T02:36:46;13.82;;;11.23;;
42478;SDS011;28110;47.080;9.476;2022-07-22T02:39:12;16.50;;;12.23;;
42478;SDS011;28110;47.080;9.476;2022-07-22T02:41:37;16.92;;;12.30;;
42478;SDS011;28110;47.080;9.476;2022-07-22T02:44:03;13.73;;;12.07;;
42478;SDS011;28110;47.080;9.476;2022-07-22T02:46:29;14.73;;;12.68;;
42478;SDS011;28110;47.080;9.476;2022-07-22T02:48:55;14.10;;;11.60;;
42478;SDS011;28110;47.080;9.476;2022-07-22T02:51:21;14.20;;;12.17;;
42478;SDS011;28110;47.080;9.476;2022-07-22T02:53:47;17.90;;;13.30;;
42478;SDS011;28110;47.080;9.476;2022-07-22T02:56:13;16.60;;;13.07;;
42478;SDS011;28110;47.080;9.476;2022-07-22T02:58:39;14.53;;;12.40;;
42478;SDS011;28110;47.080;9.476;2022-07-22T03:01:05;15.80;;;13.40;;
42478;SDS011;28110;47.080;9.476;2022-07-22T03:03:31;15.43;;;12.98;;
42478;SDS011;28110;47.080;9.476;2022-07-22T03:05:58;14.03;;;12.53;;
42478;SDS011;28110;47.080;9.476;2022-07-22T03:08:24;17.23;;;12.35;;
42478;SDS011;28110;47.080;9.476;2022-07-22T03:10:50;15.13;;;12.68;;
42478;SDS011;28110;47.080;9.476;2022-07-22T03:13:16;14.73;;;11.95;;
42478;SDS011;28110;47.080;9.476;2022-07-22T03:15:42;14.77;;;12.87;;
42478;SDS011;28110;47.080;9.476;2022-07-22T03:18:07;17.00;;;12.60;;
42478;SDS011;28110;47.080;9.476;2022-07-22T03:20:33;14.23;;;12.50;;
42478;SDS011;28110;47.080;9.476;2022-07-22T03:22:59;16.93;;;12.40;;
42478;SDS011;28110;47.080;9.476;2022-07-22T03:25:24;16.55;;;12.43;;
42478;SDS011;28110;47.080;9.476;2022-07-22T03:27:50;18.53;;;11.90;;
42478;SDS011;28110;47.080;9.476;2022-07-22T03:30:16;13.55;;;11.75;;
42478;SDS011;28110;47.080;9.476;2022-07-22T03:32:41;16.20;;;11.57;;
42478;SDS011;28110;47.080;9.476;2022-07-22T03:35:10;16.50;;;12.73;;
42478;SDS011;28110;47.080;9.476;2022-07-22T03:37:36;14.05;;;11.95;;
42478;SDS011;28110;47.080;9.476;2022-07-22T03:40:02;15.40;;;12.07;;
42478;SDS011;28110;47.080;9.476;2022-07-22T03:42:28;15.20;;;12.07;;
42478;SDS011;28110;47.080;9.476;2022-07-22T03:44:53;13.90;;;11.83;;
42478;SDS011;28110;47.080;9.476;2022-07-22T03:47:19;14.40;;;11.50;;
42478;SDS011;28110;47.080;9.476;2022-07-22T03:49:47;16.10;;;12.73;;
42478;SDS011;28110;47.080;9.476;2022-07-22T03:52:13;16.08;;;12.27;;
42478;SDS011;28110;47.080;9.476;2022-07-22T03:54:39;14.35;;;11.93;;
42478;SDS011;28110;47.080;9.476;2022-07-22T03:57:05;13.83;;;12.00;;
42478;SDS011;28110;47.080;9.476;2022-07-22T03:59:31;14.30;;;12.30;;
42478;SDS011;28110;47.080;9.476;2022-07-22T04:01:56;15.57;;;12.47;;
42478;SDS011;28110;47.080;9.476;2022-07-22T04:04:22;13.97;;;11.87;;
42478;SDS011;28110;47.080;9.476;2022-07-22T04:06:48;16.40;;;12.30;;
42478;SDS011;28110;47.080;9.476;2022-07-22T04:09:16;14.77;;;11.40;;
42478;SDS011;28110;47.080;9.476;2022-07-22T04:11:42;14.85;;;11.77;;
42478;SDS011;28110;47.080;9.476;2022-07-22T04:14:07;15.23;;;11.73;;
42478;SDS011;28110;47.080;9.476;2022-07-22T04:16:33;17.37;;;12.73;;
42478;SDS011;28110;47.080;9.476;2022-07-22T04:19:00;13.75;;;12.18;;
42478;SDS011;28110;47.080;9.476;2022-07-22T04:21:26;14.32;;;11.63;;
42478;SDS011;28110;47.080;9.476;2022-07-22T04:23:52;17.00;;;12.50;;
42478;SDS011;28110;47.080;9.476;2022-07-22T04:26:18;22.13;;;13.52;;
42478;SDS011;28110;47.080;9.476;2022-07-22T04:28:44;18.03;;;12.70;;
42478;SDS011;28110;47.080;9.476;2022-07-22T04:31:10;18.00;;;13.50;;
42478;SDS011;28110;47.080;9.476;2022-07-22T04:33:35;21.55;;;13.82;;
42478;SDS011;28110;47.080;9.476;2022-07-22T04:36:01;18.87;;;13.47;;
42478;SDS011;28110;47.080;9.476;2022-07-22T04:38:27;19.60;;;13.17;;
42478;SDS011;28110;47.080;9.476;2022-07-22T04:40:52;19.52;;;13.77;;
42478;SDS011;28110;47.080;9.476;2022-07-22T04:43:18;16.73;;;12.13;;
42478;SDS011;28110;47.080;9.476;2022-07-22T04:45:44;20.55;;;12.85;;
42478;SDS011;28110;47.080;9.476;2022-07-22T04:48:09;18.67;;;13.97;;
42478;SDS011;28110;47.080;9.476;2022-07-22T04:50:37;19.47;;;14.20;;
42478;SDS011;28110;47.080;9.476;2022-07-22T04:53:03;18.58;;;12.43;;
42478;SDS011;28110;47.080;9.476;2022-07-22T04:55:29;16.60;;;12.85;;
42478;SDS011;28110;47.080;9.476;2022-07-22T04:57:55;15.97;;;12.83;;
42478;SDS011;28110;47.080;9.476;2022-07-22T05:00:20;18.73;;;13.15;;
42478;SDS011;28110;47.080;9.476;2022-07-22T05:02:47;16.95;;;13.18;;
42478;SDS011;28110;47.080;9.476;2022-07-22T05:05:12;20.80;;;13.73;;
42478;SDS011;28110;47.080;9.476;2022-07-22T05:07:38;20.03;;;13.50;;
42478;SDS011;28110;47.080;9.476;2022-07-22T05:10:04;18.52;;;13.00;;
42478;SDS011;28110;47.080;9.476;2022-07-22T05:12:30;18.00;;;13.50;;
42478;SDS011;28110;47.080;9.476;2022-07-22T05:14:55;19.80;;;13.23;;
42478;SDS011;28110;47.080;9.476;2022-07-22T05:17:21;20.77;;;14.10;;
42478;SDS011;28110;47.080;9.476;2022-07-22T05:19:46;18.27;;;14.17;;
42478;SDS011;28110;47.080;9.476;2022-07-22T05:22:12;18.53;;;13.87;;
42478;SDS011;28110;47.080;9.476;2022-07-22T05:24:38;17.60;;;13.90;;
42478;SDS011;28110;47.080;9.476;2022-07-22T05:27:03;21.13;;;13.77;;
42478;SDS011;28110;47.080;9.476;2022-07-22T05:29:30;23.93;;;13.30;;
42478;SDS011;28110;47.080;9.476;2022-07-22T05:31:55;19.45;;;13.15;;
42478;SDS011;28110;47.080;9.476;2022-07-22T05:34:21;18.73;;;13.30;;
42478;SDS011;28110;47.080;9.476;2022-07-22T05:36:47;19.53;;;12.97;;
42478;SDS011;28110;47.080;9.476;2022-07-22T05:39:12;20.50;;;12.57;;
42478;SDS011;28110;47.080;9.476;2022-07-22T05:41:38;21.83;;;13.75;;
42478;SDS011;28110;47.080;9.476;2022-07-22T05:44:04;18.95;;;13.38;;
42478;SDS011;28110;47.080;9.476;2022-07-22T05:46:31;17.40;;;12.63;;
42478;SDS011;28110;47.080;9.476;2022-07-22T05:48:56;20.97;;;12.97;;
42478;SDS011;28110;47.080;9.476;2022-07-22T05:51:22;16.77;;;13.13;;
42478;SDS011;28110;47.080;9.476;2022-07-22T05:53:47;20.98;;;13.07;;
42478;SDS011;28110;47.080;9.476;2022-07-22T05:56:13;18.47;;;12.80;;
42478;SDS011;28110;47.080;9.476;2022-07-22T05:58:39;24.13;;;12.77;;
42478;SDS011;28110;47.080;9.476;2022-07-22T06:01:06;18.60;;;12.67;;
42478;SDS011;28110;47.080;9.476;2022-07-22T06:03:32;18.05;;;12.93;;
42478;SDS011;28110;47.080;9.476;2022-07-22T06:05:58;16.45;;;12.50;;
42478;SDS011;28110;47.080;9.476;2022-07-22T06:08:23;17.67;;;12.90;;
42478;SDS011;28110;47.080;9.476;2022-07-22T06:10:49;14.52;;;12.80;;
42478;SDS011;28110;47.080;9.476;2022-07-22T06:13:15;16.63;;;12.10;;
42478;SDS011;28110;47.080;9.476;2022-07-22T06:15:40;21.05;;;12.60;;
42478;SDS011;28110;47.080;9.476;2022-07-22T06:18:06;17.33;;;12.10;;
42478;SDS011;28110;47.080;9.476;2022-07-22T06:20:31;15.63;;;12.17;;
42478;SDS011;28110;47.080;9.476;2022-07-22T06:22:57;14.98;;;12.07;;
42478;SDS011;28110;47.080;9.476;2022-07-22T06:25:22;13.53;;;12.13;;
42478;SDS011;28110;47.080;9.476;2022-07-22T06:27:48;14.57;;;11.47;;
42478;SDS011;28110;47.080;9.476;2022-07-22T06:30:14;19.53;;;12.13;;
42478;SDS011;28110;47.080;9.476;2022-07-22T06:32:39;16.73;;;12.37;;
42478;SDS011;28110;47.080;9.476;2022-07-22T06:35:05;17.73;;;11.97;;
42478;SDS011;28110;47.080;9.476;2022-07-22T06:37:31;28.98;;;13.10;;
42478;SDS011;28110;47.080;9.476;2022-07-22T06:39:56;16.10;;;11.50;;
42478;SDS011;28110;47.080;9.476;2022-07-22T06:42:22;13.93;;;12.20;;
42478;SDS011;28110;47.080;9.476;2022-07-22T06:44:48;15.17;;;12.33;;
42478;SDS011;28110;47.080;9.476;2022-07-22T06:47:13;15.18;;;12.25;;
42478;SDS011;28110;47.080;9.476;2022-07-22T06:49:39;16.70;;;12.33;;
42478;SDS011;28110;47.080;9.476;2022-07-22T06:52:05;18.40;;;12.43;;
42478;SDS011;28110;47.080;9.476;2022-07-22T06:54:30;15.70;;;12.17;;
42478;SDS011;28110;47.080;9.476;2022-07-22T06:56:56;15.00;;;12.65;;
42478;SDS011;28110;47.080;9.476;2022-07-22T06:59:22;16.23;;;12.83;;
42478;SDS011;28110;47.080;9.476;2022-07-22T07:01:48;16.15;;;12.60;;
42478;SDS011;28110;47.080;9.476;2022-07-22T07:04:14;15.23;;;11.93;;
42478;SDS011;28110;47.080;9.476;2022-07-22T07:06:40;14.13;;;12.63;;
42478;SDS011;28110;47.080;9.476;2022-07-22T07:09:06;19.67;;;13.77;;
42478;SDS011;28110;47.080;9.476;2022-07-22T07:11:32;18.20;;;12.48;;
42478;SDS011;28110;47.080;9.476;2022-07-22T07:13:59;17.33;;;12.85;;
42478;SDS011;28110;47.080;9.476;2022-07-22T07:16:25;15.18;;;12.88;;
42478;SDS011;28110;47.080;9.476;2022-07-22T07:18:51;21.37;;;11.63;;
42478;SDS011;28110;47.080;9.476;2022-07-22T07:21:16;14.40;;;12.37;;
42478;SDS011;28110;47.080;9.476;2022-07-22T07:23:42;14.02;;;12.63;;
42478;SDS011;28110;47.080;9.476;2022-07-22T07:26:09;16.25;;;11.68;;
42478;SDS011;28110;47.080;9.476;2022-07-22T07:28:35;15.63;;;12.50;;
42478;SDS011;28110;47.080;9.476;2022-07-22T07:31:01;18.10;;;12.68;;
42478;SDS011;28110;47.080;9.476;2022-07-22T07:33:26;16.27;;;12.20;;
42478;SDS011;28110;47.080;9.476;2022-07-22T07:35:52;14.80;;;12.68;;
42478;SDS011;28110;47.080;9.476;2022-07-22T07:38:17;16.33;;;12.53;;
42478;SDS011;28110;47.080;9.476;2022-07-22T07:40:43;14.80;;;11.52;;
42478;SDS011;28110;47.080;9.476;2022-07-22T07:43:09;17.17;;;12.70;;
42478;SDS011;28110;47.080;9.476;2022-07-22T07:45:34;12.43;;;11.13;;
42478;SDS011;28110;47.080;9.476;2022-07-22T07:48:00;17.17;;;12.47;;
42478;SDS011;28110;47.080;9.476;2022-07-22T07:50:26;15.82;;;12.35;;
42478;SDS011;28110;47.080;9.476;2022-07-22T07:52:52;16.03;;;11.70;;
42478;SDS011;28110;47.080;9.476;2022-07-22T07:55:18;14.13;;;11.70;;
42478;SDS011;28110;47.080;9.476;2022-07-22T07:57:44;18.95;;;13.00;;
42478;SDS011;28110;47.080;9.476;2022-07-22T08:00:13;16.53;;;12.93;;
42478;SDS011;28110;47.080;9.476;2022-07-22T08:02:40;20.98;;;13.23;;
42478;SDS011;28110;47.080;9.476;2022-07-22T08:05:06;16.40;;;12.63;;
42478;SDS011;28110;47.080;9.476;2022-07-22T08:07:32;14.20;;;12.70;;
42478;SDS011;28110;47.080;9.476;2022-07-22T08:09:58;17.40;;;12.18;;
42478;SDS011;28110;47.080;9.476;2022-07-22T08:12:23;17.37;;;12.83;;
42478;SDS011;28110;47.080;9.476;2022-07-22T08:14:49;16.00;;;12.47;;
42478;SDS011;28110;47.080;9.476;2022-07-22T08:17:14;14.60;;;13.02;;
42478;SDS011;28110;47.080;9.476;2022-07-22T08:19:40;16.03;;;13.33;;
42478;SDS011;28110;47.080;9.476;2022-07-22T08:22:05;14.40;;;12.60;;
42478;SDS011;28110;47.080;9.476;2022-07-22T08:24:31;16.27;;;13.27;;
42478;SDS011;28110;47.080;9.476;2022-07-22T08:26:58;14.88;;;12.43;;
42478;SDS011;28110;47.080;9.476;2022-07-22T08:29:23;18.73;;;12.90;;
42478;SDS011;28110;47.080;9.476;2022-07-22T08:31:49;16.77;;;12.07;;
42478;SDS011;28110;47.080;9.476;2022-07-22T08:34:15;18.20;;;13.00;;
42478;SDS011;28110;47.080;9.476;2022-07-22T08:36:40;14.90;;;12.47;;
42478;SDS011;28110;47.080;9.476;2022-07-22T08:39:06;15.02;;;12.30;;
42478;SDS011;28110;47.080;9.476;2022-07-22T08:41:33;15.50;;;13.10;;
42478;SDS011;28110;47.080;9.476;2022-07-22T08:44:02;18.60;;;12.30;;
42478;SDS011;28110;47.080;9.476;2022-07-22T08:46:29;15.63;;;13.00;;
42478;SDS011;28110;47.080;9.476;2022-07-22T08:48:55;15.57;;;12.93;;
42478;SDS011;28110;47.080;9.476;2022-07-22T08:51:21;14.90;;;12.70;;
42478;SDS011;28110;47.080;9.476;2022-07-22T08:53:47;14.77;;;12.15;;
42478;SDS011;28110;47.080;9.476;2022-07-22T08:56:13;16.47;;;12.13;;
42478;SDS011;28110;47.080;9.476;2022-07-22T08:58:39;17.00;;;12.23;;
42478;SDS011;28110;47.080;9.476;2022-07-22T09:01:06;15.07;;;12.47;;
42478;SDS011;28110;47.080;9.476;2022-07-22T09:03:55;13.98;;;12.48;;
42478;SDS011;28110;47.080;9.476;2022-07-22T09:06:23;17.50;;;13.90;;
42478;SDS011;28110;47.080;9.476;2022-07-22T09:08:53;18.00;;;14.07;;
42478;SDS011;28110;47.080;9.476;2022-07-22T09:11:22;17.60;;;13.90;;
42478;SDS011;28110;47.080;9.476;2022-07-22T09:13:50;17.90;;;13.80;;
42478;SDS011;28110;47.080;9.476;2022-07-22T09:16:16;19.20;;;13.00;;
42478;SDS011;28110;47.080;9.476;2022-07-22T09:19:05;19.20;;;14.38;;
42478;SDS011;28110;47.080;9.476;2022-07-22T09:21:32;15.57;;;13.70;;
42478;SDS011;28110;47.080;9.476;2022-07-22T09:23:59;16.15;;;13.68;;
42478;SDS011;28110;47.080;9.476;2022-07-22T09:26:34;17.47;;;13.50;;
42478;SDS011;28110;47.080;9.476;2022-07-22T09:29:02;16.38;;;13.73;;
42478;SDS011;28110;47.080;9.476;2022-07-22T09:31:30;15.68;;;14.00;;
42478;SDS011;28110;47.080;9.476;2022-07-22T09:33:57;17.23;;;13.97;;
42478;SDS011;28110;47.080;9.476;2022-07-22T09:36:23;16.27;;;12.73;;
42478;SDS011;28110;47.080;9.476;2022-07-22T09:38:49;19.17;;;13.65;;
42478;SDS011;28110;47.080;9.476;2022-07-22T09:41:15;18.48;;;14.38;;
42478;SDS011;28110;47.080;9.476;2022-07-22T09:43:40;15.63;;;13.43;;
42478;SDS011;28110;47.080;9.476;2022-07-22T09:46:06;18.83;;;13.90;;
42478;SDS011;28110;47.080;9.476;2022-07-22T09:48:33;16.00;;;13.00;;
42478;SDS011;28110;47.080;9.476;2022-07-22T09:50:59;17.70;;;14.05;;
42478;SDS011;28110;47.080;9.476;2022-07-22T09:53:26;16.93;;;13.73;;
42478;SDS011;28110;47.080;9.476;2022-07-22T09:55:53;15.73;;;13.85;;
42478;SDS011;28110;47.080;9.476;2022-07-22T09:58:19;17.98;;;13.77;;
42478;SDS011;28110;47.080;9.476;2022-07-22T10:00:45;16.03;;;12.80;;
42478;SDS011;28110;47.080;9.476;2022-07-22T10:03:12;15.32;;;13.70;;
42478;SDS011;28110;47.080;9.476;2022-07-22T10:05:42;18.35;;;13.30;;
42478;SDS011;28110;47.080;9.476;2022-07-22T10:08:08;15.43;;;12.70;;
42478;SDS011;28110;47.080;9.476;2022-07-22T10:10:35;15.10;;;13.13;;
42478;SDS011;28110;47.080;9.476;2022-07-22T10:13:03;17.15;;;11.95;;
42478;SDS011;28110;47.080;9.476;2022-07-22T10:15:30;13.07;;;11.27;;
42478;SDS011;28110;47.080;9.476;2022-07-22T10:17:57;17.15;;;12.80;;
42478;SDS011;28110;47.080;9.476;2022-07-22T10:20:26;14.27;;;11.60;;
42478;SDS011;28110;47.080;9.476;2022-07-22T10:23:27;13.75;;;11.90;;
42478;SDS011;28110;47.080;9.476;2022-07-22T10:25:58;16.60;;;12.70;;
42478;SDS011;28110;47.080;9.476;2022-07-22T10:28:31;17.42;;;12.20;;
42478;SDS011;28110;47.080;9.476;2022-07-22T10:33:47;16.50;;;12.37;;
42478;SDS011;28110;47.080;9.476;2022-07-22T10:36:16;15.48;;;12.95;;
42478;SDS011;28110;47.080;9.476;2022-07-22T10:39:03;18.17;;;13.05;;
42478;SDS011;28110;47.080;9.476;2022-07-22T10:41:33;14.07;;;12.55;;
42478;SDS011;28110;47.080;9.476;2022-07-22T10:44:00;19.23;;;12.90;;
42478;SDS011;28110;47.080;9.476;2022-07-22T10:47:07;19.70;;;11.60;;
42478;SDS011;28110;47.080;9.476;2022-07-22T10:49:16;14.07;;;11.88;;
42478;SDS011;28110;47.080;9.476;2022-07-22T10:54:34;14.70;;;11.50;;
42478;SDS011;28110;47.080;9.476;2022-07-22T10:57:31;13.20;;;11.75;;
42478;SDS011;28110;47.080;9.476;2022-07-22T10:59:57;15.32;;;11.93;;
42478;SDS011;28110;47.080;9.476;2022-07-22T11:02:23;15.30;;;12.30;;
42478;SDS011;28110;47.080;9.476;2022-07-22T11:04:50;14.15;;;12.15;;
42478;SDS011;28110;47.080;9.476;2022-07-22T11:07:16;15.50;;;11.93;;
42478;SDS011;28110;47.080;9.476;2022-07-22T11:09:42;14.93;;;11.32;;
42478;SDS011;28110;47.080;9.476;2022-07-22T11:12:14;15.98;;;11.70;;
42478;SDS011;28110;47.080;9.476;2022-07-22T11:14:40;12.60;;;11.30;;
42478;SDS011;28110;47.080;9.476;2022-07-22T11:17:07;13.70;;;12.20;;
42478;SDS011;28110;47.080;9.476;2022-07-22T11:19:34;13.20;;;11.38;;
42478;SDS011;28110;47.080;9.476;2022-07-22T11:22:03;16.07;;;12.30;;
42478;SDS011;28110;47.080;9.476;2022-07-22T11:24:30;12.85;;;11.52;;
42478;SDS011;28110;47.080;9.476;2022-07-22T11:26:57;13.32;;;12.00;;
42478;SDS011;28110;47.080;9.476;2022-07-22T11:32:02;13.80;;;11.52;;
42478;SDS011;28110;47.080;9.476;2022-07-22T11:34:29;12.90;;;11.60;;
42478;SDS011;28110;47.080;9.476;2022-07-22T11:36:55;14.93;;;11.77;;
42478;SDS011;28110;47.080;9.476;2022-07-22T11:39:23;12.98;;;11.60;;
42478;SDS011;28110;47.080;9.476;2022-07-22T11:41:51;15.03;;;11.67;;
42478;SDS011;28110;47.080;9.476;2022-07-22T11:44:18;12.93;;;11.48;;
42478;SDS011;28110;47.080;9.476;2022-07-22T11:46:46;13.55;;;11.75;;
42478;SDS011;28110;47.080;9.476;2022-07-22T11:49:16;13.27;;;11.35;;
42478;SDS011;28110;47.080;9.476;2022-07-22T11:51:43;14.00;;;11.50;;
42478;SDS011;28110;47.080;9.476;2022-07-22T11:54:08;13.40;;;11.20;;
42478;SDS011;28110;47.080;9.476;2022-07-22T11:56:34;12.73;;;10.90;;
42478;SDS011;28110;47.080;9.476;2022-07-22T11:59:01;13.37;;;10.93;;
42478;SDS011;28110;47.080;9.476;2022-07-22T12:01:30;12.13;;;10.93;;
42478;SDS011;28110;47.080;9.476;2022-07-22T12:03:58;13.35;;;10.65;;
42478;SDS011;28110;47.080;9.476;2022-07-22T12:06:26;11.18;;;9.85;;
42478;SDS011;28110;47.080;9.476;2022-07-22T12:08:53;11.02;;;9.90;;
42478;SDS011;28110;47.080;9.476;2022-07-22T12:11:21;12.23;;;10.40;;
42478;SDS011;28110;47.080;9.476;2022-07-22T12:13:49;13.50;;;10.55;;
42478;SDS011;28110;47.080;9.476;2022-07-22T12:16:16;16.13;;;10.75;;
42478;SDS011;28110;47.080;9.476;2022-07-22T12:18:42;11.02;;;9.80;;
42478;SDS011;28110;47.080;9.476;2022-07-22T12:21:08;12.20;;;10.90;;
42478;SDS011;28110;47.080;9.476;2022-07-22T12:23:33;13.65;;;10.70;;
42478;SDS011;28110;47.080;9.476;2022-07-22T12:25:59;12.50;;;11.30;;
42478;SDS011;28110;47.080;9.476;2022-07-22T12:28:26;14.20;;;11.70;;
42478;SDS011;28110;47.080;9.476;2022-07-22T12:30:53;13.18;;;11.23;;
42478;SDS011;28110;47.080;9.476;2022-07-22T12:33:21;12.75;;;11.48;;
42478;SDS011;28110;47.080;9.476;2022-07-22T12:36:04;12.93;;;11.63;;
42478;SDS011;28110;47.080;9.476;2022-07-22T12:38:31;13.38;;;11.35;;
42478;SDS011;28110;47.080;9.476;2022-07-22T12:41:20;18.13;;;12.15;;
42478;SDS011;28110;47.080;9.476;2022-07-22T12:43:46;13.38;;;11.80;;
42478;SDS011;28110;47.080;9.476;2022-07-22T12:46:14;13.73;;;12.32;;
42478;SDS011;28110;47.080;9.476;2022-07-22T12:48:48;13.93;;;11.43;;
42478;SDS011;28110;47.080;9.476;2022-07-22T12:51:17;12.85;;;11.23;;
42478;SDS011;28110;47.080;9.476;2022-07-22T12:53:43;14.90;;;12.25;;
42478;SDS011;28110;47.080;9.476;2022-07-22T12:56:08;15.17;;;12.20;;
42478;SDS011;28110;47.080;9.476;2022-07-22T12:58:35;14.02;;;12.07;;
42478;SDS011;28110;47.080;9.476;2022-07-22T13:01:02;15.20;;;11.27;;
42478;SDS011;28110;47.080;9.476;2022-07-22T13:03:29;14.18;;;11.75;;
42478;SDS011;28110;47.080;9.476;2022-07-22T13:05:58;13.00;;;11.18;;
42478;SDS011;28110;47.080;9.476;2022-07-22T13:08:25;13.68;;;11.30;;
42478;SDS011;28110;47.080;9.476;2022-07-22T13:10:52;12.90;;;11.32;;
42478;SDS011;28110;47.080;9.476;2022-07-22T13:13:19;13.03;;;10.90;;
42478;SDS011;28110;47.080;9.476;2022-07-22T13:15:45;13.32;;;11.23;;
42478;SDS011;28110;47.080;9.476;2022-07-22T13:18:11;15.55;;;11.07;;
42478;SDS011;28110;47.080;9.476;2022-07-22T13:20:36;14.10;;;11.30;;
42478;SDS011;28110;47.080;9.476;2022-07-22T13:23:02;13.95;;;11.32;;
42478;SDS011;28110;47.080;9.476;2022-07-22T13:25:28;13.23;;;11.37;;
42478;SDS011;28110;47.080;9.476;2022-07-22T13:27:55;18.88;;;11.85;;
42478;SDS011;28110;47.080;9.476;2022-07-22T13:30:21;16.10;;;11.40;;
42478;SDS011;28110;47.080;9.476;2022-07-22T13:32:47;12.88;;;11.68;;
42478;SDS011;28110;47.080;9.476;2022-07-22T13:35:13;13.60;;;11.87;;
42478;SDS011;28110;47.080;9.476;2022-07-22T13:37:39;12.50;;;11.20;;
42478;SDS011;28110;47.080;9.476;2022-07-22T13:40:05;17.07;;;11.77;;
42478;SDS011;28110;47.080;9.476;2022-07-22T13:42:31;12.77;;;11.20;;
42478;SDS011;28110;47.080;9.476;2022-07-22T13:44:56;12.40;;;11.10;;
42478;SDS011;28110;47.080;9.476;2022-07-22T13:47:23;12.27;;;10.77;;
42478;SDS011;28110;47.080;9.476;2022-07-22T13:49:48;13.02;;;11.00;;
42478;SDS011;28110;47.080;9.476;2022-07-22T13:52:14;13.97;;;10.90;;
42478;SDS011;28110;47.080;9.476;2022-07-22T13:54:41;12.52;;;11.15;;
42478;SDS011;28110;47.080;9.476;2022-07-22T13:57:06;16.70;;;11.73;;
42478;SDS011;28110;47.080;9.476;2022-07-22T13:59:34;13.52;;;10.88;;
42478;SDS011;28110;47.080;9.476;2022-07-22T14:01:59;13.98;;;11.15;;
42478;SDS011;28110;47.080;9.476;2022-07-22T14:04:26;15.18;;;11.93;;
42478;SDS011;28110;47.080;9.476;2022-07-22T14:06:52;12.67;;;11.43;;
42478;SDS011;28110;47.080;9.476;2022-07-22T14:09:18;15.52;;;11.70;;
42478;SDS011;28110;47.080;9.476;2022-07-22T14:11:44;13.70;;;10.90;;
42478;SDS011;28110;47.080;9.476;2022-07-22T14:14:09;12.17;;;10.30;;
42478;SDS011;28110;47.080;9.476;2022-07-22T14:16:35;12.77;;;11.43;;
42478;SDS011;28110;47.080;9.476;2022-07-22T14:19:03;13.25;;;10.10;;
42478;SDS011;28110;47.080;9.476;2022-07-22T14:21:29;14.10;;;10.55;;
42478;SDS011;28110;47.080;9.476;2022-07-22T14:23:55;13.93;;;9.93;;
42478;SDS011;28110;47.080;9.476;2022-07-22T14:26:20;11.87;;;10.57;;